To NAV CANADA Home Page Login to a new session Search on AWWS site Disclaimer Vers la page française équivalente Tips FAQ What's new on the site To the Forecasts and Observations / NOTAM section To "File a Flight Plan" website Publications and other links Update of the User's profile FIC Telephone Numbers My Weather Data Folder Route Weather Data Regional Weather Data Local Weather Data To the Forecasts and Observations / NOTAM section
Request Generated 10/19/2018 at 16:15:30 UTC . Weather information available at that time is displayed.

METAR/TAF

QUESNEL/BC    (show WxCam)

METAR CYQZ 191600Z AUTO 00000KT 9SM OVC100 04/03 A3029 RMK SLP282=
METAR CYQZ 191500Z AUTO VRB02KT 9SM OVC100 02/02 A3029 RMK SLP282=
SPECI CYQZ 191450Z AUTO VRB02KT 6SM BR OVC100 02/02 A3030 RMK SLP283=
SPECI CYQZ 191438Z AUTO VRB02KT 5SM BR OVC100 02/01 A3029 RMK SLP281=
SPECI CYQZ 191422Z AUTO 00000KT 6SM BR OVC100 02/02 A3029 RMK SLP281=
SPECI CYQZ 191419Z AUTO VRB02KT 3SM BR OVC100 02/02 A3029 RMK SLP281=
SPECI CYQZ 191417Z AUTO 00000KT 2 1/4SM BR OVC100 02/02 A3029 RMK SLP281=
SPECI CYQZ 191406Z AUTO 00000KT 2SM BR BKN100 01/01 A3029 RMK SLP281=
SPECI CYQZ 191405Z AUTO 00000KT 2 1/2SM BR BKN100 01/01 A3029 RMK SLP281=
METAR CYQZ 191400Z AUTO 00000KT 9SM BKN100 02/02 A3029 RMK SLP280=

TAF AMD CYQZ 191209Z 1912/1924 VRB03KT P6SM SCT090 OVC140 TEMPO
1912/1916 1SM BR FEW005 BKN090 OVC140 PROB30 1912/1916 1/2SM FG
BKN005
FM191600 VRB03KT P6SM SCT140 BKN200
BECMG 1918/1920 18006KT
RMK FCST BASED ON AUTO OBS. NXT FCST BY 191900Z=
Your time UTC time
Weather data provided by Environment Canada and NAV CANADA